x

Southwest Hawaii - 215nm Ssw Of Hilo, Hi (51002) Wave Buoy

10:50am - Tue 4th Aug 2015 All times are HST. -10 hours from GMT.

  • Sig Wave height 6.2ft
  • Swell Direction
  • Peak Period 11s
  • Average Period 8s
  • Wind
    9mph, 11mph gusts
  • Sea Temp 82°f
  • Air Temp 80°f
  • Sea Pressure 1010.6mb
  • Southwest Hawaii - 215nm Ssw Of Hilo, Hi
  • Southwest Hawaii - 215nm Ssw Of Hilo, Hi

More Historic Weather Station data

Upgrade to MSW Pro to gain access to the past 30 days of data for over 8000 Wavebouys and Weather Stations around the globe.

Join Pro

Comparision Forecast

View Surf forecast
   
Tue 08/04 10:50am 6ft 11s 8s 9 11 mph 1010.6mb 82f 80f
9:50am 6ft 12s 7s 7 11 mph 1010.9mb 82f 81f
8:50am 6ft 10s 8s 4
mph
1011.1mb 82f 81f
7:50am 5.5ft 11s 7s 4 7 mph 1010.9mb 82f 80f
6:50am 5.5ft 11s 7s 11 13 mph 1010.3mb 82f 80f
5:50am 6ft 12s 8s 9 11 mph 1009.7mb 82f 81f
4:50am 5ft 12s 7s 7 9 mph 1009.4mb 82f 81f
3:50am 6ft 11s 8s 9 11 mph 1009.5mb 82f 81f
2:50am 5.5ft 12s 7s 9 11 mph 1009.8mb 82f 81f
1:50am 6.5ft 13s 8s 9 11 mph 1010.2mb 82f 81f
12:50am 6ft 12s 8s 9 11 mph 1010.7mb 82f 81f
Mon 08/03 11:50pm 6ft 11s 8s 11 13 mph 1011.1mb 82f 81f
10:50pm 7ft 12s 8s 11 13 mph 1011.2mb 82f 81f
9:50pm 7ft 13s 8s 11 13 mph 1011.1mb 82f 82f
8:50pm 6.5ft 13s 8s 9 11 mph 1010.5mb 82f 82f
7:50pm 7ft 13s 8s 11 13 mph 1009.9mb 82f 82f
6:50pm 6.5ft 14s  -  11 13 mph 1009.2mb 82f 82f
5:50pm 6.5ft 13s 7s 13 16 mph 1008.9mb 83f 82f
4:50pm 6.5ft 14s 7s 11 13 mph 1008.7mb 83f 81f
3:50pm 6.5ft 12s 7s 11 16 mph 1009mb 83f 81f
2:50pm 6.5ft 14s 7s 18 22 mph 1009.2mb 83f 78f
1:50pm 6ft 12s 7s 9 11 mph 1009.8mb 83f 82f
12:50pm 7ft 13s 8s 9 13 mph 1010mb 83f 82f
11:50am 8ft 11s 8s 11 13 mph 1010.5mb 83f 82f
10:50am 7.5ft 13s 8s 11 13 mph 1010.7mb 82f 81f
9:50am 8ft 12s 8s 9 13 mph 1010.9mb 82f 82f
8:50am 8ft 14s 7s 9 11 mph 1010.8mb 82f 82f
7:50am 6.5ft 13s 7s 11 13 mph 1010.3mb 82f 82f
6:50am 6.5ft 15s 7s 13 16 mph 1009.7mb 82f 81f
5:50am 6.5ft 14s 7s 13 16 mph 1009.5mb 82f 81f
4:50am 7ft 14s 7s 13 16 mph 1009.5mb 82f 81f
3:50am 6.5ft 14s 7s 13 16 mph 1009.2mb 82f 81f
2:50am 7ft 14s 7s 13 16 mph 1009.4mb 82f 81f
1:50am 6.5ft 14s 7s 16 18 mph 1009.9mb 82f 81f
12:50am 6ft 7s 6s 16 18 mph 1010.2mb 82f 81f
Sun 08/02 11:50pm 6.5ft 8s 6s 16 20 mph 1010.6mb 82f 82f
10:50pm 6.5ft 14s 6s 18 20 mph 1010.8mb 82f 82f
9:50pm 7ft 15s 7s 18 20 mph 1010.5mb 82f 82f
8:50pm 7ft 15s 7s 18 20 mph 1010mb 82f 82f
7:50pm 6.5ft 9s 6s 16 18 mph 1009.7mb 82f 82f
6:50pm 6.5ft 7s 6s 16 18 mph 1009.3mb 82f 82f
5:50pm 7ft 8s 6s 16 18 mph 1008.8mb 82f 82f
4:50pm 7ft 9s 6s 16 18 mph 1008.5mb 82f 82f
3:50pm 7ft 8s 6s 18 20 mph 1008.5mb 82f 82f
2:50pm 7.5ft 8s 7s 18 20 mph 1008.7mb 82f 82f
1:50pm 8ft 8s 6s 18 20 mph 1009.1mb 82f 82f
12:50pm 8ft 10s 6s 18 22 mph 1009.7mb 82f 82f
11:50am 8.5ft 8s 7s 20 22 mph 1010mb 82f 82f
10:50am 8ft 9s 6s 18 20 mph 1010.2mb 82f 79f
9:50am 8ft 8s 6s 16 20 mph 1010.1mb 82f 79f
8:50am 8.5ft 8s 6s 22 25 mph 1009.8mb 82f 82f
7:50am 9.5ft 8s 7s 18 22 mph 1009.7mb 82f 80f
6:50am 9.5ft 9s 7s 20 22 mph 1009.4mb 82f 78f
5:50am 9.5ft 9s 7s 25 29 mph 1008.8mb 82f 80f
4:50am 8.5ft 8s 6s 20 25 mph 1008.8mb 82f 79f
3:50am 8.5ft 9s 6s 20 25 mph 1009mb 82f 78f
2:50am 8ft 8s 6s 25 29 mph 1009mb 82f 78f
1:50am 8ft 10s 6s 22 29 mph 1009.6mb 82f 79f
12:50am 8.5ft 9s 6s 22 25 mph 1010.3mb 82f 80f
Sat 08/01 11:50pm 8.5ft 9s 7s 22 27 mph 1010.7mb 82f 81f
10:50pm 8ft 9s 6s 18 20 mph 1011.2mb 82f 79f
9:50pm 8ft 8s 6s 20 27 mph 1010.9mb 82f 79f
8:50pm 8ft 8s 7s 20 25 mph 1010.6mb 82f 79f
7:50pm 8ft 8s 6s 18 20 mph 1010.3mb 82f 80f
6:50pm 7.5ft 8s 6s 20 25 mph 1009.8mb 82f 82f
5:50pm 7ft 8s 6s 25 29 mph 1009.2mb 82f 82f
4:50pm 6ft 8s 6s 18 22 mph 1009.5mb 82f 80f
3:50pm 6ft 8s 6s 18 20 mph 1009.8mb 82f 82f
2:50pm 6ft 8s 6s 18 20 mph 1010.1mb 82f 82f
1:50pm 6ft 8s 6s 16 20 mph 1010.5mb 82f 82f
12:50pm 6ft 8s 6s 18 20 mph 1011mb 82f 82f
11:50am 6ft 8s 6s 16 18 mph 1011.9mb 82f 82f
10:50am 6.5ft 8s 6s 16 20 mph 1012.2mb 82f 82f
9:50am 6ft 8s 6s 18 22 mph 1012.1mb 82f 82f
8:50am 6.5ft 8s 6s 18 22 mph 1012.5mb 82f 81f
7:50am 6.5ft 8s 6s 20 22 mph 1012.5mb 82f 81f
6:50am 6.5ft 8s 6s 16 20 mph 1012.2mb 82f 81f
5:50am 7ft 8s 6s 13 18 mph 1011.6mb 82f 81f
4:50am 7ft 8s 6s 16 18 mph 1011.5mb 82f 81f
3:50am 7ft 7s 6s 16 18 mph 1011.7mb 82f 81f
2:50am 7ft 8s 6s 18 20 mph 1012.4mb 82f 81f
1:50am 6.5ft 8s 6s 18 22 mph 1012.7mb 82f 81f
12:50am 7ft 8s 6s 18 20 mph 1013mb 82f 81f
Fri 07/31 11:50pm 7ft 8s 6s 22 25 mph 1013mb 82f 81f
10:50pm 7ft 8s 6s 20 25 mph 1013.3mb 82f 81f